Time;durP1;ratioP1;P1;durP2;ratioP2;P2;SDS_P1;SDS_P2;PMS_P1;PMS_P2;Temp;Humidity;BMP_temperature;BMP_pressure;BME280_temperature;BME280_humidity;BME280_pressure;Samples;Min_cycle;Max_cycle;Signal;HPM_P1;HPM_P2
2023/09/28 00:01:43;;;;;;;11.73;9.07;;;19.00;99.90;;;;;;5035560;28;20084;-90
2023/09/28 00:04:09;;;;;;;10.13;8.75;;;19.00;99.90;;;;;;5018561;28;20045;-90
2023/09/28 00:06:35;;;;;;;11.43;7.68;;;19.10;99.90;;;;;;5019086;28;20048;-89
2023/09/28 00:09:00;;;;;;;13.55;8.93;;;19.10;99.90;;;;;;5035473;28;20407;-90
2023/09/28 00:11:26;;;;;;;11.55;8.70;;;19.10;99.90;;;;;;5035346;28;20037;-89
2023/09/28 00:13:51;;;;;;;10.88;8.27;;;19.10;99.90;;;;;;5019318;28;20458;-90
2023/09/28 00:16:18;;;;;;;10.75;8.07;;;19.10;99.90;;;;;;5034660;28;20033;-90
2023/09/28 00:18:43;;;;;;;9.75;8.10;;;19.10;99.90;;;;;;5018597;28;20056;-90
2023/09/28 00:21:09;;;;;;;9.82;8.10;;;19.10;99.90;;;;;;5019065;28;20037;-90
2023/09/28 00:23:35;;;;;;;10.70;7.72;;;19.10;99.90;;;;;;5018811;28;20417;-89
2023/09/28 00:26:00;;;;;;;10.35;8.02;;;19.10;99.90;;;;;;5018902;28;20385;-90
2023/09/28 00:28:27;;;;;;;12.13;8.73;;;19.10;99.90;;;;;;5018384;28;20041;-90
2023/09/28 00:30:53;;;;;;;10.20;7.72;;;19.10;99.90;;;;;;5018165;28;20420;-90
2023/09/28 00:33:18;;;;;;;11.30;7.32;;;19.10;99.90;;;;;;5018902;28;20091;-90
2023/09/28 00:35:44;;;;;;;10.88;7.45;;;19.20;99.90;;;;;;5018395;28;20033;-90
2023/09/28 00:38:10;;;;;;;10.30;6.15;;;19.10;99.90;;;;;;5018653;28;20094;-90
2023/09/28 00:40:39;;;;;;;9.90;7.47;;;19.10;99.90;;;;;;5034984;28;20037;-90
2023/09/28 00:43:05;;;;;;;9.88;7.20;;;19.10;99.90;;;;;;5034719;28;20048;-90
2023/09/28 00:45:31;;;;;;;11.32;7.80;;;19.10;99.90;;;;;;5034839;28;20087;-90
2023/09/28 00:48:02;;;;;;;11.32;7.82;;;19.10;99.90;;;;;;5035003;28;20041;-89
2023/09/28 00:50:31;;;;;;;10.60;7.63;;;19.10;99.90;;;;;;5017974;28;20032;-90
2023/09/28 00:53:02;;;;;;;11.15;7.78;;;19.10;99.90;;;;;;5018006;28;20051;-90
2023/09/28 00:55:29;;;;;;;10.80;8.05;;;19.10;99.90;;;;;;5018226;28;20121;-89
2023/09/28 00:58:00;;;;;;;10.77;8.00;;;19.10;99.90;;;;;;5034722;28;20120;-90
2023/09/28 01:00:31;;;;;;;10.55;7.22;;;19.10;99.90;;;;;;5034576;28;20045;-90
2023/09/28 01:02:59;;;;;;;11.82;8.15;;;19.10;99.90;;;;;;5034543;28;20114;-90
2023/09/28 01:05:33;;;;;;;11.80;7.78;;;19.10;99.90;;;;;;5018010;28;20037;-90
2023/09/28 01:08:11;;;;;;;11.25;7.25;;;19.10;99.90;;;;;;5018240;28;20063;-90
2023/09/28 01:10:38;;;;;;;9.52;6.40;;;19.10;99.90;;;;;;5050967;28;20045;-90
2023/09/28 01:13:11;;;;;;;9.88;6.95;;;19.10;99.90;;;;;;5018235;28;20037;-89
2023/09/28 01:15:41;;;;;;;9.35;6.35;;;19.10;99.90;;;;;;5018007;28;20381;-90
2023/09/28 01:18:15;;;;;;;10.05;6.72;;;19.10;99.90;;;;;;5017860;28;20093;-90
2023/09/28 01:20:43;;;;;;;9.48;5.97;;;19.20;99.90;;;;;;5018049;28;20112;-90
2023/09/28 01:23:09;;;;;;;11.25;6.88;;;19.10;99.90;;;;;;5018252;28;20045;-90
2023/09/28 01:25:36;;;;;;;11.15;6.80;;;19.10;99.90;;;;;;5034179;28;20037;-90
2023/09/28 01:28:02;;;;;;;10.02;6.60;;;19.20;99.90;;;;;;5050636;28;20048;-90
2023/09/28 01:30:28;;;;;;;9.75;6.38;;;19.10;99.90;;;;;;5017819;28;20032;-90
2023/09/28 01:32:54;;;;;;;13.00;6.78;;;19.10;99.90;;;;;;5035246;28;20116;-90
2023/09/28 01:35:20;;;;;;;8.75;4.32;;;19.20;99.90;;;;;;5036144;28;20061;-90
2023/09/28 01:37:52;;;;;;;10.57;6.00;;;19.10;99.90;;;;;;5034049;28;20041;-90
2023/09/28 01:40:18;;;;;;;9.05;6.30;;;19.10;99.90;;;;;;5021601;28;20040;-90
2023/09/28 01:42:43;;;;;;;10.13;6.13;;;19.20;99.90;;;;;;5034095;28;20098;-90
2023/09/28 01:45:10;;;;;;;11.68;5.97;;;19.20;99.90;;;;;;5033889;28;20033;-90
2023/09/28 01:47:35;;;;;;;10.50;6.18;;;19.10;99.90;;;;;;5017912;28;20053;-90
2023/09/28 01:50:03;;;;;;;8.90;6.00;;;19.20;99.90;;;;;;5017732;28;20036;-90
2023/09/28 01:52:28;;;;;;;9.70;5.80;;;19.20;99.90;;;;;;5017690;28;20048;-90
2023/09/28 01:54:54;;;;;;;9.73;5.70;;;19.20;99.90;;;;;;5017562;28;20033;-90
2023/09/28 01:57:20;;;;;;;9.50;5.75;;;19.20;99.90;;;;;;5033935;28;20048;-89
2023/09/28 01:59:46;;;;;;;10.77;5.80;;;19.20;99.90;;;;;;5033465;28;20052;-90
2023/09/28 02:02:11;;;;;;;10.13;5.65;;;19.20;99.90;;;;;;5034213;28;20044;-90
2023/09/28 02:04:38;;;;;;;10.23;5.65;;;19.20;99.90;;;;;;5017454;28;20131;-90
2023/09/28 02:07:04;;;;;;;8.57;4.78;;;19.20;99.90;;;;;;5017684;28;20138;-90
2023/09/28 02:09:30;;;;;;;10.18;5.63;;;19.20;99.90;;;;;;5033407;28;20075;-89
2023/09/28 02:11:56;;;;;;;8.45;5.15;;;19.20;99.90;;;;;;5034040;28;20516;-90
2023/09/28 02:14:22;;;;;;;11.15;5.90;;;19.20;99.90;;;;;;5033769;28;20037;-90
2023/09/28 02:16:50;;;;;;;10.98;5.88;;;19.20;99.90;;;;;;5017141;28;20037;-89
2023/09/28 02:19:16;;;;;;;10.50;6.22;;;19.10;99.90;;;;;;5017257;28;20477;-89
2023/09/28 02:21:42;;;;;;;9.93;5.93;;;19.10;99.90;;;;;;5033717;28;20048;-89
2023/09/28 02:24:08;;;;;;;9.30;5.45;;;19.10;99.90;;;;;;5017473;28;20132;-90
2023/09/28 02:26:34;;;;;;;10.07;6.25;;;19.00;99.90;;;;;;5033645;28;20041;-89
2023/09/28 02:29:00;;;;;;;10.55;5.97;;;19.00;99.90;;;;;;5020013;28;20067;-89
2023/09/28 02:31:27;;;;;;;12.32;6.75;;;18.90;99.90;;;;;;5020952;28;20514;-89
2023/09/28 02:33:53;;;;;;;12.38;6.95;;;18.90;99.90;;;;;;5021008;28;20049;-90
2023/09/28 02:36:19;;;;;;;9.68;6.22;;;18.80;99.90;;;;;;5021128;28;20067;-89
2023/09/28 02:38:45;;;;;;;10.05;6.32;;;18.80;99.90;;;;;;5036937;28;20535;-89
2023/09/28 02:41:18;;;;;;;11.65;6.93;;;18.80;99.90;;;;;;5020557;28;20528;-90
2023/09/28 02:43:44;;;;;;;10.93;6.00;;;18.70;99.90;;;;;;5020627;28;20051;-89
2023/09/28 02:46:10;;;;;;;9.88;5.35;;;18.70;99.90;;;;;;5020775;28;20079;-89
2023/09/28 02:48:36;;;;;;;10.25;6.53;;;18.60;99.90;;;;;;5036752;28;20076;-90
2023/09/28 02:51:04;;;;;;;11.88;6.88;;;18.60;99.90;;;;;;5020456;28;20087;-89
2023/09/28 02:53:33;;;;;;;10.52;6.78;;;18.70;99.90;;;;;;5020612;28;20083;-90
2023/09/28 02:55:59;;;;;;;10.93;6.72;;;18.70;99.90;;;;;;5037220;28;20124;-90
2023/09/28 02:58:25;;;;;;;10.85;6.78;;;18.70;99.90;;;;;;5020297;28;20128;-90
2023/09/28 03:00:55;;;;;;;11.75;6.40;;;18.70;99.90;;;;;;5036971;28;20095;-90
2023/09/28 03:03:21;;;;;;;10.00;5.90;;;18.70;99.90;;;;;;5020862;28;20045;-90
2023/09/28 03:05:47;;;;;;;10.93;5.30;;;18.70;99.90;;;;;;5037125;28;20037;-89
2023/09/28 03:08:14;;;;;;;10.02;6.50;;;18.70;99.90;;;;;;5020099;28;20420;-89
2023/09/28 03:10:42;;;;;;;10.20;6.68;;;18.60;99.90;;;;;;5020218;28;20056;-89
2023/09/28 03:13:08;;;;;;;11.75;6.72;;;18.60;99.90;;;;;;5020442;28;20041;-89
2023/09/28 03:15:35;;;;;;;10.27;7.25;;;18.50;99.90;;;;;;5036633;28;20048;-90
2023/09/28 03:18:00;;;;;;;10.98;7.65;;;18.50;99.90;;;;;;5019984;28;20053;-89
2023/09/28 03:20:27;;;;;;;9.52;6.63;;;18.50;99.90;;;;;;5036008;28;20123;-89
2023/09/28 03:22:53;;;;;;;15.98;5.32;;;18.40;99.90;;;;;;5033412;28;20087;-90
2023/09/28 03:25:21;;;;;;;12.15;6.80;;;18.30;99.90;;;;;;5029163;28;20089;-89
2023/09/28 03:27:52;;;;;;;9.73;6.57;;;18.30;99.90;;;;;;5035874;28;20037;-89
2023/09/28 03:30:19;;;;;;;12.60;7.03;;;18.30;99.90;;;;;;5019883;28;20106;-90
2023/09/28 03:32:48;;;;;;;10.95;7.15;;;18.20;99.90;;;;;;5052665;28;20064;-90
2023/09/28 03:35:15;;;;;;;9.35;6.53;;;18.20;99.90;;;;;;5020050;28;20083;-90
2023/09/28 03:37:41;;;;;;;10.45;7.43;;;18.10;99.90;;;;;;5036215;28;20091;-90
2023/09/28 03:40:11;;;;;;;10.93;7.18;;;18.10;99.90;;;;;;5034604;28;20087;-90
2023/09/28 03:42:38;;;;;;;10.50;6.90;;;18.00;99.90;;;;;;5036157;28;20495;-89
2023/09/28 03:45:04;;;;;;;10.15;4.82;;;18.00;99.90;;;;;;5036587;28;20642;-90
2023/09/28 03:47:32;;;;;;;10.23;6.90;;;17.90;99.90;;;;;;5036067;28;20116;-90
2023/09/28 03:49:57;;;;;;;10.93;6.95;;;17.90;99.90;;;;;;5019410;28;20037;-90
2023/09/28 03:52:23;;;;;;;10.65;6.60;;;17.90;99.90;;;;;;5035935;28;20090;-90
2023/09/28 03:54:49;;;;;;;12.05;6.85;;;17.90;99.90;;;;;;5019843;28;20124;-89
2023/09/28 03:57:14;;;;;;;9.35;6.25;;;17.90;99.90;;;;;;5019595;28;20488;-90
2023/09/28 03:59:40;;;;;;;9.90;6.93;;;17.90;99.90;;;;;;5019180;28;20043;-90
2023/09/28 04:02:06;;;;;;;10.55;6.78;;;17.90;99.90;;;;;;5019274;28;20515;-89
2023/09/28 04:04:32;;;;;;;11.30;7.28;;;17.80;99.90;;;;;;5052350;28;20041;-90
2023/09/28 04:06:57;;;;;;;12.48;8.07;;;17.80;99.90;;;;;;5019494;28;20048;-90
2023/09/28 04:09:23;;;;;;;10.82;7.43;;;17.80;99.90;;;;;;5036243;28;20045;-90
2023/09/28 04:11:49;;;;;;;12.82;7.57;;;17.70;99.90;;;;;;5036659;28;20037;-90
2023/09/28 04:14:15;;;;;;;10.52;7.35;;;17.70;99.90;;;;;;5032306;28;20090;-90
2023/09/28 04:16:41;;;;;;;10.95;7.05;;;17.70;99.90;;;;;;5043786;28;20083;-89
2023/09/28 04:19:07;;;;;;;9.27;5.13;;;17.60;99.90;;;;;;5032070;28;20050;-90
2023/09/28 04:21:33;;;;;;;10.82;4.93;;;17.50;99.90;;;;;;5018763;28;20048;-89
2023/09/28 04:23:59;;;;;;;10.48;7.45;;;17.40;99.90;;;;;;5035404;28;20040;-89
2023/09/28 04:26:25;;;;;;;9.50;5.13;;;17.50;99.90;;;;;;5018748;28;20033;-89
2023/09/28 04:28:52;;;;;;;11.02;7.53;;;17.50;99.90;;;;;;5041501;28;20033;-90
2023/09/28 04:31:18;;;;;;;10.93;6.60;;;17.50;99.90;;;;;;5028619;28;20040;-89
2023/09/28 04:33:44;;;;;;;12.02;7.43;;;17.50;99.90;;;;;;5020326;28;20036;-89
2023/09/28 04:36:10;;;;;;;10.95;7.32;;;17.50;99.90;;;;;;5020296;28;20033;-89
2023/09/28 04:38:36;;;;;;;11.35;7.43;;;17.50;99.90;;;;;;5035866;28;20041;-90
2023/09/28 04:41:02;;;;;;;11.60;7.28;;;17.60;99.90;;;;;;5031983;28;20514;-89
2023/09/28 04:43:28;;;;;;;12.43;7.40;;;17.60;99.90;;;;;;5018468;28;20095;-90
2023/09/28 04:45:54;;;;;;;12.57;7.90;;;17.60;99.90;;;;;;5033337;28;20037;-89
2023/09/28 04:48:19;;;;;;;10.63;7.60;;;17.60;99.90;;;;;;5015893;28;20048;-89
2023/09/28 04:50:45;;;;;;;10.93;5.03;;;17.60;99.90;;;;;;5033481;28;20488;-89
2023/09/28 04:53:10;;;;;;;12.30;5.90;;;17.50;99.90;;;;;;5034181;28;20041;-90
2023/09/28 04:55:36;;;;;;;11.10;7.40;;;17.50;99.90;;;;;;5033853;28;20052;-90
2023/09/28 04:58:02;;;;;;;13.65;8.15;;;17.50;99.90;;;;;;5033785;28;20120;-89
2023/09/28 05:00:27;;;;;;;10.98;7.35;;;17.50;99.90;;;;;;5017148;28;20488;-89
2023/09/28 05:02:53;;;;;;;13.18;7.80;;;17.40;99.90;;;;;;5018026;28;20044;-90
2023/09/28 05:05:19;;;;;;;12.05;7.70;;;17.50;99.90;;;;;;5014416;28;20436;-90
2023/09/28 05:07:44;;;;;;;10.40;5.15;;;17.40;99.90;;;;;;5033471;28;20040;-89
2023/09/28 05:10:11;;;;;;;12.57;8.00;;;17.40;99.90;;;;;;5033426;28;20511;-90
2023/09/28 05:12:37;;;;;;;9.45;5.03;;;17.30;99.90;;;;;;5017405;28;20044;-89
2023/09/28 05:15:04;;;;;;;12.10;6.03;;;17.30;99.90;;;;;;5033604;28;20044;-89
2023/09/28 05:17:29;;;;;;;11.63;9.00;;;17.20;99.90;;;;;;5017273;28;20078;-89
2023/09/28 05:19:55;;;;;;;13.73;8.85;;;17.30;99.90;;;;;;5033705;28;20048;-89
2023/09/28 05:22:20;;;;;;;14.13;8.48;;;17.30;99.90;;;;;;5033786;28;20095;-89
2023/09/28 05:24:46;;;;;;;11.52;8.25;;;17.30;99.90;;;;;;5017185;28;20036;-89
2023/09/28 05:27:12;;;;;;;15.93;8.57;;;17.30;99.90;;;;;;5033375;28;20041;-89
2023/09/28 05:29:37;;;;;;;11.18;5.38;;;17.30;99.90;;;;;;5033053;28;20051;-89
2023/09/28 05:32:05;;;;;;;13.02;8.07;;;17.20;99.90;;;;;;5017479;28;20467;-89
2023/09/28 05:34:31;;;;;;;11.48;7.20;;;17.20;99.90;;;;;;5033804;28;20037;-89
2023/09/28 05:36:56;;;;;;;9.27;6.60;;;17.20;99.90;;;;;;5033519;28;20036;-89
2023/09/28 05:39:22;;;;;;;12.75;7.68;;;17.30;99.90;;;;;;5033136;28;20037;-89
2023/09/28 05:41:47;;;;;;;11.40;7.22;;;17.30;99.90;;;;;;5032525;28;20465;-90
2023/09/28 05:44:14;;;;;;;11.32;7.38;;;17.30;99.90;;;;;;5033584;28;20047;-90
2023/09/28 05:46:39;;;;;;;10.02;4.90;;;17.30;99.90;;;;;;5032929;28;20047;-90
2023/09/28 05:49:05;;;;;;;9.98;7.03;;;17.20;99.90;;;;;;5016425;28;20041;-90
2023/09/28 05:51:31;;;;;;;11.85;7.68;;;17.20;99.90;;;;;;5033597;28;20124;-90
2023/09/28 05:53:57;;;;;;;12.45;8.13;;;17.20;99.90;;;;;;5017123;28;20496;-90
2023/09/28 05:56:23;;;;;;;11.77;7.85;;;17.20;99.90;;;;;;5016956;28;20037;-90
2023/09/28 05:58:48;;;;;;;12.27;7.55;;;17.20;99.90;;;;;;5033349;28;20045;-90
2023/09/28 06:01:17;;;;;;;11.73;7.93;;;17.10;99.90;;;;;;5033824;28;20048;-89
2023/09/28 06:03:43;;;;;;;11.02;4.72;;;17.10;99.90;;;;;;5019959;28;20127;-90
2023/09/28 06:06:17;;;;;;;10.38;5.35;;;17.00;99.90;;;;;;5037963;28;20045;-90
2023/09/28 06:08:44;;;;;;;10.68;7.68;;;17.00;99.90;;;;;;5037256;28;20040;-90
2023/09/28 06:11:11;;;;;;;11.65;4.35;;;17.00;99.90;;;;;;5021263;28;20492;-90
2023/09/28 06:13:39;;;;;;;10.85;5.32;;;17.00;99.90;;;;;;5020802;28;20036;-90
2023/09/28 06:16:05;;;;;;;12.98;7.70;;;16.90;99.90;;;;;;5036967;28;20415;-89
2023/09/28 06:18:30;;;;;;;13.88;7.45;;;17.00;99.90;;;;;;5037042;28;20041;-90
2023/09/28 06:20:56;;;;;;;10.68;4.50;;;17.00;99.90;;;;;;5037231;28;20076;-89
2023/09/28 06:23:21;;;;;;;10.50;4.78;;;17.00;99.90;;;;;;5038446;28;20037;-89
2023/09/28 06:25:47;;;;;;;13.38;6.95;;;17.00;99.90;;;;;;5042167;28;20451;-89
2023/09/28 06:28:13;;;;;;;8.82;3.88;;;17.00;99.90;;;;;;5035269;28;20041;-89
2023/09/28 06:30:39;;;;;;;13.48;6.55;;;17.00;99.90;;;;;;5019753;28;20045;-90
2023/09/28 06:33:04;;;;;;;11.95;5.90;;;17.00;99.90;;;;;;5032255;28;20068;-90
2023/09/28 06:35:30;;;;;;;17.08;6.68;;;17.00;99.90;;;;;;5019323;28;20094;-90
2023/09/28 06:37:56;;;;;;;13.23;5.97;;;17.10;99.90;;;;;;5036905;28;20033;-90
2023/09/28 06:40:22;;;;;;;13.82;5.88;;;17.10;99.90;;;;;;5019378;28;20484;-91
2023/09/28 06:42:47;;;;;;;13.30;5.70;;;17.10;99.90;;;;;;5036760;28;20045;-90
2023/09/28 06:45:14;;;;;;;16.40;3.72;;;17.10;99.90;;;;;;5020765;28;20043;-90
2023/09/28 06:47:39;;;;;;;10.77;3.58;;;17.10;99.90;;;;;;5021684;28;20037;-90
2023/09/28 06:50:05;;;;;;;15.38;5.68;;;17.10;99.90;;;;;;5037470;28;20037;-90
2023/09/28 06:52:32;;;;;;;13.20;3.88;;;17.10;99.90;;;;;;5039510;28;20041;-90
2023/09/28 06:54:58;;;;;;;16.00;5.55;;;17.20;99.90;;;;;;5040089;28;20090;-90
2023/09/28 06:57:24;;;;;;;16.80;6.18;;;17.20;99.90;;;;;;5020017;28;20072;-88
2023/09/28 06:59:50;;;;;;;14.85;5.47;;;17.30;99.90;;;;;;5019970;28;20048;-90
2023/09/28 07:02:15;;;;;;;17.33;6.00;;;17.30;99.90;;;;;;5037030;28;20110;-90
2023/09/28 07:04:42;;;;;;;13.57;5.53;;;17.30;99.90;;;;;;5020180;28;20044;-90
2023/09/28 07:07:10;;;;;;;18.00;5.32;;;17.40;99.90;;;;;;5036477;28;20044;-90
2023/09/28 07:09:36;;;;;;;18.27;5.90;;;17.40;99.90;;;;;;5019463;28;20037;-90
2023/09/28 07:12:02;;;;;;;17.42;6.10;;;17.40;99.90;;;;;;5037213;28;20032;-90
2023/09/28 07:14:27;;;;;;;10.70;3.60;;;17.50;99.90;;;;;;5019334;28;20419;-90
2023/09/28 07:16:53;;;;;;;14.63;3.78;;;17.40;99.90;;;;;;5036020;28;20044;-90
2023/09/28 07:19:19;;;;;;;12.65;3.85;;;17.40;99.90;;;;;;5018940;28;20083;-90
2023/09/28 07:21:46;;;;;;;16.33;5.32;;;17.40;99.90;;;;;;5035646;28;20044;-90
2023/09/28 07:24:12;;;;;;;18.00;6.55;;;17.50;99.90;;;;;;5036156;28;20207;-89
2023/09/28 07:26:37;;;;;;;15.27;4.50;;;17.60;99.90;;;;;;5036175;28;20446;-90
2023/09/28 07:29:04;;;;;;;16.00;4.95;;;17.60;99.90;;;;;;5035711;28;20049;-90
2023/09/28 07:31:29;;;;;;;20.48;6.63;;;17.60;99.90;;;;;;5034934;28;20037;-90
2023/09/28 07:33:56;;;;;;;19.52;5.63;;;17.70;99.90;;;;;;5019236;28;20033;-90
2023/09/28 07:36:21;;;;;;;22.33;6.72;;;17.80;99.90;;;;;;5033984;28;20116;-90
2023/09/28 07:38:47;;;;;;;16.52;5.93;;;17.80;99.90;;;;;;5018523;28;20044;-91
2023/09/28 07:41:13;;;;;;;19.75;6.57;;;17.90;99.90;;;;;;5035280;28;20045;-90
2023/09/28 07:43:38;;;;;;;22.40;6.60;;;17.90;99.90;;;;;;5035269;28;20523;-90
2023/09/28 07:46:04;;;;;;;16.48;5.82;;;18.00;99.90;;;;;;5032146;28;20090;-89
2023/09/28 07:48:30;;;;;;;14.43;3.40;;;18.00;99.90;;;;;;5029808;28;20409;-90
2023/09/28 07:50:55;;;;;;;20.23;6.13;;;18.10;99.90;;;;;;5019119;28;20121;-89
2023/09/28 07:53:21;;;;;;;17.05;6.38;;;18.10;99.90;;;;;;5019087;28;20041;-89
2023/09/28 07:55:47;;;;;;;19.10;6.80;;;18.20;99.90;;;;;;5035398;28;20041;-90
2023/09/28 07:58:12;;;;;;;19.77;5.97;;;18.20;99.90;;;;;;5035580;28;20037;-90
2023/09/28 08:00:38;;;;;;;12.82;3.83;;;18.30;99.90;;;;;;5019277;28;20486;-90
2023/09/28 08:03:04;;;;;;;21.50;6.63;;;18.20;99.90;;;;;;5035758;28;20127;-89
2023/09/28 08:05:31;;;;;;;18.38;6.15;;;18.30;99.90;;;;;;5035880;28;20415;-89
2023/09/28 08:07:57;;;;;;;16.48;6.18;;;18.40;99.90;;;;;;5018452;28;20037;-89
2023/09/28 08:10:23;;;;;;;21.25;6.18;;;18.40;99.90;;;;;;5018435;28;20103;-88
2023/09/28 08:12:48;;;;;;;23.30;6.53;;;18.50;99.90;;;;;;5035081;28;20041;-88
2023/09/28 08:15:15;;;;;;;22.13;6.95;;;18.60;99.90;;;;;;5025664;28;20052;-88
2023/09/28 08:17:44;;;;;;;20.30;6.20;;;18.70;99.90;;;;;;5039447;28;20033;-88
2023/09/28 08:20:10;;;;;;;19.35;4.00;;;18.70;99.90;;;;;;5024949;28;20029;-88
2023/09/28 08:22:36;;;;;;;21.00;6.35;;;18.70;99.90;;;;;;5039836;28;20551;-88
2023/09/28 08:25:05;;;;;;;17.75;5.88;;;18.80;99.90;;;;;;5024022;28;20136;-88
2023/09/28 08:27:31;;;;;;;21.90;6.40;;;18.80;99.90;;;;;;5018166;28;20049;-89
2023/09/28 08:29:57;;;;;;;22.10;6.18;;;18.80;99.90;;;;;;5018228;28;20131;-89
2023/09/28 08:32:23;;;;;;;21.75;6.60;;;18.80;99.90;;;;;;5013541;28;20120;-89
2023/09/28 08:34:49;;;;;;;19.83;6.20;;;18.80;99.90;;;;;;5042864;28;20512;-89
2023/09/28 08:37:14;;;;;;;21.75;4.57;;;18.80;99.90;;;;;;5040653;28;20123;-90
2023/09/28 08:39:40;;;;;;;24.90;6.45;;;18.80;99.90;;;;;;5043074;28;20032;-90
2023/09/28 08:42:14;;;;;;;22.58;6.25;;;18.80;99.90;;;;;;5035197;28;20123;-90
2023/09/28 08:44:40;;;;;;;20.20;5.75;;;18.90;99.90;;;;;;5018920;28;20033;-91
2023/09/28 08:47:16;;;;;;;22.77;6.53;;;18.90;99.90;;;;;;5031208;28;20041;-90
2023/09/28 08:49:46;;;;;;;19.90;6.57;;;19.00;99.90;;;;;;5051159;28;20045;-90
2023/09/28 08:52:14;;;;;;;23.20;7.47;;;18.90;99.90;;;;;;5018138;28;20412;-91
2023/09/28 08:54:41;;;;;;;22.83;6.63;;;19.00;99.90;;;;;;5034287;28;20037;-90
2023/09/28 08:57:08;;;;;;;15.40;3.53;;;19.00;99.90;;;;;;5033703;28;20086;-90
2023/09/28 08:59:35;;;;;;;22.98;6.78;;;19.00;99.90;;;;;;5030569;28;20049;-90
2023/09/28 09:02:03;;;;;;;23.48;6.07;;;19.00;99.90;;;;;;5027904;28;20036;-90
2023/09/28 09:04:31;;;;;;;22.90;6.32;;;19.00;99.90;;;;;;5017728;28;20083;-90
2023/09/28 09:06:59;;;;;;;21.08;6.25;;;19.00;99.90;;;;;;5017879;28;20036;-90
2023/09/28 09:09:24;;;;;;;20.60;4.93;;;19.00;99.90;;;;;;5016570;28;20132;-90
2023/09/28 09:11:52;;;;;;;24.17;6.43;;;19.10;99.90;;;;;;5034018;28;20123;-90
2023/09/28 09:14:19;;;;;;;22.08;5.95;;;19.10;99.90;;;;;;5017790;28;20033;-90
2023/09/28 09:16:45;;;;;;;21.02;6.40;;;19.20;99.90;;;;;;5017163;28;20106;-90
2023/09/28 09:19:14;;;;;;;25.52;6.30;;;19.20;99.90;;;;;;5016487;28;20072;-90
2023/09/28 09:21:44;;;;;;;20.85;6.22;;;19.20;99.90;;;;;;5033474;28;20740;-90
2023/09/28 09:24:18;;;;;;;23.23;6.15;;;19.10;99.90;;;;;;5034400;28;20404;-90
2023/09/28 09:26:52;;;;;;;22.73;6.10;;;19.20;99.90;;;;;;5017920;28;20055;-91
2023/09/28 09:29:18;;;;;;;22.58;6.40;;;19.20;99.90;;;;;;5024890;28;20563;-90
2023/09/28 09:31:48;;;;;;;23.48;6.68;;;19.30;99.90;;;;;;5037689;28;20049;-90
2023/09/28 09:34:18;;;;;;;21.48;5.97;;;19.30;99.90;;;;;;5015420;28;20127;-90
2023/09/28 09:36:58;;;;;;;19.83;5.80;;;19.30;99.90;;;;;;5037098;28;20104;-91
2023/09/28 09:39:32;;;;;;;23.98;5.57;;;19.30;99.90;;;;;;5026260;28;20055;-90
2023/09/28 09:41:58;;;;;;;22.63;5.88;;;19.30;99.90;;;;;;5019200;28;20052;-90
2023/09/28 09:44:24;;;;;;;21.60;5.25;;;19.30;99.90;;;;;;5015174;28;20390;-91
2023/09/28 09:46:55;;;;;;;22.13;6.07;;;19.30;99.90;;;;;;5034392;28;20626;-90
2023/09/28 09:49:24;;;;;;;22.95;6.45;;;19.30;99.90;;;;;;5017475;28;20045;-90
2023/09/28 09:51:50;;;;;;;22.15;6.50;;;19.30;99.90;;;;;;4997641;28;20500;-90
2023/09/28 09:54:17;;;;;;;22.35;6.65;;;19.30;99.90;;;;;;5017045;28;20047;-91
2023/09/28 09:56:48;;;;;;;22.17;6.18;;;19.30;99.90;;;;;;5017041;28;20036;-90
2023/09/28 09:59:16;;;;;;;24.98;6.53;;;19.40;99.90;;;;;;5038596;28;20059;-90
2023/09/28 10:01:51;;;;;;;22.95;6.43;;;19.50;99.90;;;;;;5038464;28;20086;-90
2023/09/28 10:04:18;;;;;;;24.98;6.38;;;19.50;99.90;;;;;;5023103;28;20079;-90
2023/09/28 10:06:51;;;;;;;19.15;6.30;;;19.50;99.90;;;;;;5039269;28;21487;-90
2023/09/28 10:09:20;;;;;;;21.98;5.65;;;19.50;99.90;;;;;;5017663;28;20424;-91
2023/09/28 10:11:48;;;;;;;11.18;3.20;;;19.50;99.90;;;;;;5038668;28;20087;-90
2023/09/28 10:14:20;;;;;;;23.23;6.00;;;19.60;99.90;;;;;;5020720;28;20427;-90
2023/09/28 10:16:48;;;;;;;20.63;5.50;;;19.60;99.90;;;;;;5037711;28;20032;-90
2023/09/28 10:19:19;;;;;;;18.83;5.30;;;19.60;99.90;;;;;;5019800;28;20037;-91
2023/09/28 10:21:44;;;;;;;21.38;5.53;;;19.60;99.90;;;;;;5023816;28;20037;-89
2023/09/28 10:24:17;;;;;;;18.38;4.50;;;19.60;99.90;;;;;;5040333;28;20428;-90
2023/09/28 10:26:47;;;;;;;24.13;6.07;;;19.70;99.90;;;;;;5022994;28;20068;-90
2023/09/28 10:29:19;;;;;;;19.52;6.03;;;19.70;99.90;;;;;;5040104;28;20405;-90
2023/09/28 10:31:46;;;;;;;22.63;6.28;;;19.80;99.90;;;;;;5016596;28;20064;-91
2023/09/28 10:34:20;;;;;;;22.88;6.13;;;19.80;99.90;;;;;;5016651;28;20396;-90
2023/09/28 10:37:13;;;;;;;27.10;6.68;;;19.90;99.90;;;;;;5016356;28;20103;-90
2023/09/28 10:39:41;;;;;;;20.08;5.60;;;20.00;99.90;;;;;;5031945;28;20146;-91
2023/09/28 10:42:13;;;;;;;20.83;5.93;;;20.00;99.90;;;;;;5016735;28;20044;-91
2023/09/28 10:44:47;;;;;;;20.65;5.88;;;20.20;99.90;;;;;;5021025;28;20037;-91
2023/09/28 10:47:12;;;;;;;23.35;5.90;;;20.30;99.90;;;;;;5041668;28;20518;-91
2023/09/28 10:49:39;;;;;;;25.17;6.15;;;20.40;99.90;;;;;;5026867;28;20032;-91
2023/09/28 10:52:09;;;;;;;23.02;6.20;;;20.30;99.90;;;;;;5045479;28;20135;-91
2023/09/28 10:54:34;;;;;;;23.17;5.90;;;20.20;99.90;;;;;;5027994;28;20032;-90
2023/09/28 10:57:02;;;;;;;25.50;6.68;;;20.10;99.90;;;;;;5044896;28;20137;-90
2023/09/28 10:59:28;;;;;;;21.70;6.32;;;20.00;99.90;;;;;;5043967;28;20043;-90
2023/09/28 11:01:54;;;;;;;21.60;5.85;;;19.90;99.90;;;;;;5026435;28;20123;-90
2023/09/28 11:04:19;;;;;;;23.70;6.20;;;19.90;99.90;;;;;;5027873;28;20047;-90
2023/09/28 11:06:45;;;;;;;21.00;5.55;;;19.90;99.90;;;;;;5045127;28;20037;-91
2023/09/28 11:09:14;;;;;;;21.73;5.45;;;19.90;99.90;;;;;;5027591;28;20040;-90
2023/09/28 11:11:43;;;;;;;21.10;6.47;;;20.00;99.90;;;;;;5025389;28;20449;-90
2023/09/28 11:14:10;;;;;;;23.55;5.85;;;20.00;99.90;;;;;;5027954;28;20545;-91
2023/09/28 11:16:41;;;;;;;20.88;6.45;;;20.00;99.90;;;;;;5027080;28;20032;-90
2023/09/28 11:19:08;;;;;;;20.13;5.45;;;20.00;99.90;;;;;;5028327;28;20182;-91
2023/09/28 11:21:34;;;;;;;24.67;5.82;;;20.10;99.90;;;;;;5027809;28;20048;-90
2023/09/28 11:24:02;;;;;;;22.58;5.60;;;20.20;99.90;;;;;;5028130;28;20037;-90
2023/09/28 11:26:29;;;;;;;23.20;6.25;;;20.30;99.90;;;;;;5025535;28;20037;-90
2023/09/28 11:28:57;;;;;;;23.77;5.20;;;20.30;99.90;;;;;;5019426;28;20041;-91
2023/09/28 11:31:23;;;;;;;23.05;5.82;;;20.50;99.90;;;;;;5013509;28;20076;-90
2023/09/28 11:33:49;;;;;;;23.45;6.53;;;20.60;99.90;;;;;;5046252;28;20086;-91
2023/09/28 11:36:23;;;;;;;23.20;6.22;;;20.70;99.90;;;;;;5029726;28;20033;-91
2023/09/28 11:38:49;;;;;;;21.70;5.78;;;20.80;99.90;;;;;;5045904;28;20482;-90
2023/09/28 11:41:15;;;;;;;23.58;5.90;;;20.90;99.90;;;;;;5028495;28;20049;-91
2023/09/28 11:43:50;;;;;;;22.52;5.80;;;21.00;99.90;;;;;;5047641;28;20044;-90
2023/09/28 11:46:29;;;;;;;21.15;5.70;;;21.10;99.90;;;;;;5029861;28;20041;-91
2023/09/28 11:49:04;;;;;;;20.83;5.57;;;21.10;99.90;;;;;;5029069;28;20033;-90
2023/09/28 11:51:34;;;;;;;21.83;6.10;;;21.10;99.90;;;;;;5029420;28;20065;-92
2023/09/28 11:54:06;;;;;;;19.27;5.50;;;21.00;99.90;;;;;;5019301;28;20037;-91
2023/09/28 11:56:32;;;;;;;22.40;5.47;;;21.10;99.90;;;;;;5019521;28;20087;-91
2023/09/28 11:58:58;;;;;;;19.77;5.60;;;21.10;99.90;;;;;;5035805;28;20041;-91
2023/09/28 12:01:25;;;;;;;25.58;5.97;;;21.20;99.90;;;;;;5019329;28;20041;-91
2023/09/28 12:03:50;;;;;;;22.40;5.53;;;21.30;99.90;;;;;;5020805;28;20099;-91
2023/09/28 12:06:19;;;;;;;20.05;5.38;;;21.30;99.90;;;;;;5050120;28;20037;-92
2023/09/28 12:08:45;;;;;;;21.92;6.05;;;21.30;99.90;;;;;;5025241;28;20057;-91
2023/09/28 12:11:11;;;;;;;18.58;4.75;;;21.30;99.90;;;;;;5018848;28;20056;-91
2023/09/28 12:13:37;;;;;;;23.73;6.50;;;21.30;99.90;;;;;;5019053;28;20045;-94
2023/09/28 12:16:06;;;;;;;22.50;6.05;;;21.30;99.90;;;;;;5017928;28;20037;-90
2023/09/28 12:18:32;;;;;;;19.55;5.38;;;21.20;99.90;;;;;;5049715;28;20052;-91
2023/09/28 12:20:58;;;;;;;21.38;5.78;;;21.20;99.90;;;;;;5032969;28;20033;-91
2023/09/28 12:23:25;;;;;;;20.48;5.88;;;21.30;99.90;;;;;;5033008;28;20041;-91
2023/09/28 12:25:51;;;;;;;23.27;5.47;;;21.30;99.90;;;;;;5032864;28;20049;-91
2023/09/28 12:28:17;;;;;;;18.85;5.38;;;21.30;99.90;;;;;;5012252;28;20095;-92
2023/09/28 12:30:43;;;;;;;23.52;5.63;;;21.30;99.90;;;;;;5015816;28;20028;-91
2023/09/28 12:33:09;;;;;;;20.38;5.38;;;21.30;99.90;;;;;;5016341;28;20041;-91
2023/09/28 12:35:39;;;;;;;21.40;5.78;;;21.30;99.90;;;;;;5016077;28;20063;-91
2023/09/28 12:38:07;;;;;;;22.48;5.65;;;21.20;99.90;;;;;;5011981;28;20056;-90